createdAt,value
2022-08-03T00:00:06.282Z,71.39
2022-08-03T00:01:29.362Z,71.37
2022-08-03T00:02:32.443Z,71.33
2022-08-03T00:03:35.687Z,71.20
2022-08-03T00:04:41.289Z,71.13
2022-08-03T00:06:04.395Z,70.97
2022-08-03T00:07:08.036Z,71.04
2022-08-03T00:08:11.661Z,71.00
2022-08-03T00:09:15.700Z,70.97
2022-08-03T00:10:18.875Z,71.03
2022-08-03T00:11:22.212Z,71.15
2022-08-03T00:12:25.470Z,71.12
2022-08-03T00:13:28.457Z,71.28
2022-08-03T00:14:31.615Z,71.28
2022-08-03T00:15:34.688Z,71.40
2022-08-03T00:16:37.936Z,71.41
2022-08-03T00:17:53.214Z,71.36
2022-08-03T00:18:57.256Z,71.30
2022-08-03T00:20:00.281Z,71.34
2022-08-03T00:21:04.866Z,71.26
2022-08-03T00:22:08.079Z,71.08
2022-08-03T00:23:11.659Z,70.96
2022-08-03T00:24:14.730Z,70.90
2022-08-03T00:25:18.341Z,70.81
2022-08-03T00:26:22.102Z,70.72
2022-08-03T00:27:25.444Z,70.77
2022-08-03T00:28:28.740Z,71.06
2022-08-03T00:29:32.753Z,71.13
2022-08-03T00:30:36.393Z,71.13
2022-08-03T00:31:44.952Z,71.30
2022-08-03T00:33:02.663Z,71.16
2022-08-03T00:34:06.193Z,71.26
2022-08-03T00:35:14.777Z,71.41
2022-08-03T00:36:32.160Z,71.29
2022-08-03T00:37:41.229Z,71.51
2022-08-03T00:38:45.170Z,71.23
2022-08-03T00:39:48.341Z,71.24
2022-08-03T00:40:51.518Z,71.15
2022-08-03T00:41:54.757Z,71.09
2022-08-03T00:43:00.032Z,71.09
2022-08-03T00:44:03.236Z,71.15
2022-08-03T00:45:06.903Z,71.23
2022-08-03T00:46:10.048Z,71.44
2022-08-03T00:47:15.381Z,71.44
2022-08-03T00:48:29.427Z,71.13
2022-08-03T00:49:37.707Z,70.89
2022-08-03T00:50:42.926Z,70.60
2022-08-03T00:51:46.009Z,70.50
2022-08-03T00:52:50.089Z,70.38
2022-08-03T00:53:53.232Z,70.41
2022-08-03T00:54:56.794Z,70.41
2022-08-03T00:56:00.286Z,70.46
2022-08-03T00:57:03.947Z,70.57
2022-08-03T00:58:08.706Z,70.90
2022-08-03T00:59:12.350Z,71.10
2022-08-03T01:00:22.934Z,71.20
2022-08-03T01:01:27.008Z,71.09
2022-08-03T01:02:36.271Z,71.21
2022-08-03T01:03:39.444Z,71.16
2022-08-03T01:04:42.805Z,71.10
2022-08-03T01:05:58.481Z,71.09
2022-08-03T01:07:22.022Z,71.03
2022-08-03T01:08:53.175Z,70.99
2022-08-03T01:10:33.488Z,71.05
2022-08-03T01:12:01.079Z,71.12
2022-08-03T01:14:01.945Z,71.05
2022-08-03T01:14:50.457Z,70.97
2022-08-03T01:16:37.074Z,70.95
2022-08-03T01:18:02.155Z,70.89
2022-08-03T01:19:41.435Z,70.90
2022-08-03T01:20:49.877Z,70.88
2022-08-03T01:22:00.161Z,71.07
2022-08-03T01:23:42.020Z,71.30
2022-08-03T01:25:03.489Z,71.49
2022-08-03T01:26:25.587Z,71.58
2022-08-03T01:27:54.703Z,71.99
2022-08-03T01:29:35.193Z,71.84
2022-08-03T01:30:41.140Z,71.78
2022-08-03T01:32:59.860Z,71.68
2022-08-03T01:33:31.284Z,71.46
2022-08-03T01:34:43.942Z,71.45
2022-08-03T01:35:53.793Z,71.34
2022-08-03T01:37:03.620Z,71.40
2022-08-03T01:38:22.616Z,71.35
2022-08-03T01:39:31.150Z,71.33
2022-08-03T01:40:37.994Z,71.24
2022-08-03T01:42:01.398Z,71.42
2022-08-03T01:43:08.197Z,71.56
2022-08-03T01:44:28.580Z,71.69
2022-08-03T01:45:34.629Z,71.83
2022-08-03T01:46:39.341Z,72.11
2022-08-03T01:47:44.749Z,72.17
2022-08-03T01:48:49.401Z,72.16
2022-08-03T01:49:54.421Z,72.27
2022-08-03T01:50:59.587Z,72.30
2022-08-03T01:52:05.482Z,72.46
2022-08-03T01:53:10.798Z,72.53
2022-08-03T01:54:14.869Z,72.50
2022-08-03T01:55:22.310Z,72.58
2022-08-03T01:56:27.542Z,72.62
2022-08-03T01:57:31.235Z,72.57
2022-08-03T01:58:36.314Z,72.34
2022-08-03T01:59:45.038Z,72.07
2022-08-03T02:00:50.641Z,71.83
2022-08-03T02:02:29.143Z,71.72
2022-08-03T02:03:24.253Z,71.60
2022-08-03T02:04:28.588Z,71.59
2022-08-03T02:05:33.151Z,71.61
2022-08-03T02:07:01.178Z,71.57
2022-08-03T02:08:05.358Z,71.53
2022-08-03T02:09:09.180Z,71.53
2022-08-03T02:10:14.334Z,71.60
2022-08-03T02:11:17.572Z,71.71
2022-08-03T02:12:22.462Z,71.68
2022-08-03T02:13:38.753Z,71.88
2022-08-03T02:14:50.456Z,72.09
2022-08-03T02:15:55.394Z,72.16
2022-08-03T02:16:59.603Z,72.48
2022-08-03T02:18:06.433Z,72.51
2022-08-03T02:19:15.047Z,72.67
2022-08-03T02:20:19.672Z,72.81
2022-08-03T02:21:57.326Z,72.88
2022-08-03T02:22:49.775Z,72.61
2022-08-03T02:23:52.910Z,72.57
2022-08-03T02:24:56.394Z,72.38
2022-08-03T02:26:03.614Z,72.13
2022-08-03T02:27:18.936Z,72.13
2022-08-03T02:28:26.689Z,72.00
2022-08-03T02:29:39.515Z,72.02
2022-08-03T02:30:46.940Z,72.01
2022-08-03T02:32:00.956Z,71.93
2022-08-03T02:33:06.149Z,71.86
2022-08-03T02:34:16.054Z,72.01
2022-08-03T02:35:24.650Z,71.83
2022-08-03T02:36:30.064Z,71.92
2022-08-03T02:37:37.862Z,71.90
2022-08-03T02:38:51.526Z,71.89
2022-08-03T02:40:04.743Z,71.96
2022-08-03T02:41:14.193Z,71.99
2022-08-03T02:42:24.840Z,72.17
2022-08-03T02:43:57.666Z,72.27
2022-08-03T02:44:57.215Z,72.42
2022-08-03T02:46:00.499Z,72.43
2022-08-03T02:47:11.374Z,72.52
2022-08-03T02:48:18.918Z,72.44
2022-08-03T02:49:42.138Z,72.49
2022-08-03T02:50:48.716Z,72.51
2022-08-03T02:51:53.819Z,72.54
2022-08-03T02:53:03.769Z,72.73
2022-08-03T02:54:09.682Z,72.79
2022-08-03T02:55:15.450Z,72.89
2022-08-03T02:56:20.154Z,73.03
2022-08-03T02:57:25.837Z,73.01
2022-08-03T02:58:29.840Z,73.11
2022-08-03T02:59:33.851Z,73.06
2022-08-03T03:00:40.445Z,73.13
2022-08-03T03:01:46.658Z,73.16
2022-08-03T03:02:53.478Z,73.11
2022-08-03T03:03:57.789Z,73.28
2022-08-03T03:05:51.745Z,73.23
2022-08-03T03:06:27.400Z,73.05
2022-08-03T03:07:51.352Z,72.94
2022-08-03T03:08:59.784Z,72.79
2022-08-03T03:10:05.928Z,72.79
2022-08-03T03:11:10.669Z,72.76
2022-08-03T03:12:15.486Z,72.89
2022-08-03T03:13:21.467Z,72.90
2022-08-03T03:14:33.948Z,72.95
2022-08-03T03:15:46.609Z,73.00
2022-08-03T03:16:52.036Z,73.11
2022-08-03T03:18:01.994Z,73.24
2022-08-03T03:19:08.769Z,73.38
2022-08-03T03:20:12.675Z,73.42
2022-08-03T03:21:19.213Z,73.56
2022-08-03T03:22:23.633Z,73.65
2022-08-03T03:23:28.475Z,73.72
2022-08-03T03:24:32.410Z,73.60
2022-08-03T03:25:36.589Z,73.75
2022-08-03T03:26:42.529Z,73.77
2022-08-03T03:27:49.422Z,73.73
2022-08-03T03:28:54.004Z,73.72
2022-08-03T03:29:58.402Z,73.58
2022-08-03T03:31:05.011Z,73.67
2022-08-03T03:32:09.253Z,73.69
2022-08-03T03:33:16.343Z,73.69
2022-08-03T03:34:21.112Z,73.74
2022-08-03T03:35:25.609Z,73.80
2022-08-03T03:36:28.646Z,73.61
2022-08-03T03:37:31.803Z,73.58
2022-08-03T03:38:35.265Z,73.40
2022-08-03T03:39:38.447Z,73.22
2022-08-03T03:40:42.340Z,73.19
2022-08-03T03:41:45.926Z,73.12
2022-08-03T03:42:51.189Z,73.16
2022-08-03T03:43:56.983Z,72.98
2022-08-03T03:45:04.767Z,73.02
2022-08-03T03:46:07.933Z,72.96
2022-08-03T03:47:11.158Z,72.97
2022-08-03T03:48:16.650Z,73.20
2022-08-03T03:49:19.974Z,73.33
2022-08-03T03:50:24.244Z,73.35
2022-08-03T03:51:27.548Z,73.39
2022-08-03T03:52:34.324Z,73.35
2022-08-03T03:53:37.499Z,73.39
2022-08-03T03:54:42.489Z,73.38
2022-08-03T03:55:59.472Z,73.34
2022-08-03T03:57:05.603Z,73.31
2022-08-03T03:58:08.890Z,73.33
2022-08-03T03:59:12.143Z,73.34
2022-08-03T04:00:16.719Z,73.38
2022-08-03T04:01:20.470Z,73.37
2022-08-03T04:02:26.787Z,73.35
2022-08-03T04:03:31.233Z,73.53
2022-08-03T04:04:54.135Z,73.57
2022-08-03T04:06:16.816Z,73.54
2022-08-03T04:07:39.613Z,73.73
2022-08-03T04:09:01.377Z,73.67
2022-08-03T04:10:48.673Z,73.66
2022-08-03T04:11:53.767Z,73.64
2022-08-03T04:12:59.373Z,73.58
2022-08-03T04:14:17.018Z,73.41
2022-08-03T04:15:23.573Z,73.35
2022-08-03T04:16:39.713Z,73.28
2022-08-03T04:17:47.167Z,73.33
2022-08-03T04:18:55.061Z,73.28
2022-08-03T04:20:01.530Z,73.39
2022-08-03T04:21:15.792Z,73.46
2022-08-03T04:22:24.336Z,73.48
2022-08-03T04:23:30.204Z,73.57
2022-08-03T04:24:38.552Z,73.59
2022-08-03T04:25:44.202Z,73.79
2022-08-03T04:26:52.790Z,73.77
2022-08-03T04:28:29.922Z,73.85
2022-08-03T04:29:24.584Z,73.91
2022-08-03T04:30:28.834Z,73.81
2022-08-03T04:31:33.146Z,73.78
2022-08-03T04:32:39.320Z,73.66
2022-08-03T04:33:46.238Z,73.72
2022-08-03T04:34:49.591Z,73.82
2022-08-03T04:36:01.610Z,73.96
2022-08-03T04:37:12.798Z,73.99
2022-08-03T04:38:19.876Z,73.99
2022-08-03T04:39:28.199Z,73.98
2022-08-03T04:40:35.069Z,74.02
2022-08-03T04:42:02.087Z,74.18
2022-08-03T04:43:03.690Z,74.25
2022-08-03T04:44:08.885Z,74.16
2022-08-03T04:45:13.341Z,74.08
2022-08-03T04:46:17.224Z,74.03
2022-08-03T04:47:21.468Z,74.06
2022-08-03T04:48:25.038Z,74.20
2022-08-03T04:49:30.248Z,74.19
2022-08-03T04:50:34.280Z,74.46
2022-08-03T04:51:40.703Z,74.42
2022-08-03T04:52:44.031Z,74.44
2022-08-03T04:53:48.150Z,74.51
2022-08-03T04:54:51.352Z,74.54
2022-08-03T04:55:54.480Z,74.66
2022-08-03T04:56:57.732Z,74.54
2022-08-03T04:58:02.707Z,74.66
2022-08-03T04:59:06.258Z,74.79
2022-08-03T05:00:10.053Z,74.78
2022-08-03T05:01:13.443Z,74.61
2022-08-03T05:02:16.811Z,74.70
2022-08-03T05:03:24.236Z,74.74
2022-08-03T05:04:28.140Z,74.95
2022-08-03T05:05:34.931Z,74.96
2022-08-03T05:06:55.051Z,74.87
2022-08-03T05:07:59.152Z,74.98
2022-08-03T05:09:04.510Z,75.16
2022-08-03T05:10:16.150Z,75.10
2022-08-03T05:11:24.803Z,75.27
2022-08-03T05:12:32.332Z,75.55
2022-08-03T05:13:36.086Z,75.61
2022-08-03T05:14:39.483Z,75.74
2022-08-03T05:15:42.868Z,75.77
2022-08-03T05:16:48.933Z,75.83
2022-08-03T05:17:54.658Z,75.94
2022-08-03T05:18:57.775Z,76.03
2022-08-03T05:20:01.530Z,76.05
2022-08-03T05:21:07.585Z,76.17
2022-08-03T05:22:10.781Z,76.09
2022-08-03T05:23:16.605Z,76.26
2022-08-03T05:24:19.772Z,76.28
2022-08-03T05:25:27.347Z,76.23
2022-08-03T05:26:30.651Z,76.33
2022-08-03T05:27:33.949Z,76.29
2022-08-03T05:28:37.032Z,76.36
2022-08-03T05:29:44.009Z,76.75
2022-08-03T05:30:47.463Z,76.56
2022-08-03T05:31:52.762Z,76.75
2022-08-03T05:32:56.001Z,76.80
2022-08-03T05:33:59.234Z,76.82
2022-08-03T05:35:57.525Z,76.76
2022-08-03T05:36:26.165Z,76.99
2022-08-03T05:37:29.252Z,77.08
2022-08-03T05:38:34.960Z,77.19
2022-08-03T05:39:41.330Z,77.43
2022-08-03T05:40:56.948Z,77.48
2022-08-03T05:42:01.129Z,77.67
2022-08-03T05:43:04.428Z,77.61
2022-08-03T05:44:07.549Z,77.82
2022-08-03T05:45:27.920Z,77.86
2022-08-03T05:46:31.784Z,78.28
2022-08-03T05:47:34.886Z,78.33
2022-08-03T05:48:38.585Z,78.53
2022-08-03T05:49:41.807Z,78.97
2022-08-03T05:50:44.964Z,78.97
2022-08-03T05:51:48.103Z,79.11
2022-08-03T05:53:03.269Z,79.17
2022-08-03T05:54:06.463Z,79.04
2022-08-03T05:55:11.010Z,79.24
2022-08-03T05:56:16.275Z,79.14
2022-08-03T05:57:19.563Z,79.57
2022-08-03T05:58:25.183Z,79.23
2022-08-03T05:59:38.467Z,79.43
2022-08-03T06:00:42.348Z,79.31
2022-08-03T06:01:45.648Z,79.44
2022-08-03T06:02:48.918Z,79.41
2022-08-03T06:03:52.685Z,79.32
2022-08-03T06:04:55.881Z,79.23
2022-08-03T06:06:00.250Z,79.22
2022-08-03T06:07:03.930Z,79.07
2022-08-03T06:08:07.004Z,79.05
2022-08-03T06:09:13.640Z,79.00
2022-08-03T06:10:36.061Z,79.00
2022-08-03T06:11:41.618Z,79.00
2022-08-03T06:12:48.100Z,79.04
2022-08-03T06:13:51.370Z,78.94
2022-08-03T06:14:54.431Z,79.19
2022-08-03T06:15:57.750Z,79.12
2022-08-03T06:17:00.954Z,79.07
2022-08-03T06:18:04.157Z,79.05
2022-08-03T06:19:07.450Z,79.26
2022-08-03T06:20:11.344Z,79.27
2022-08-03T06:21:16.156Z,79.17
2022-08-03T06:22:19.975Z,79.19
2022-08-03T06:23:54.532Z,79.30
2022-08-03T06:24:53.585Z,79.33
2022-08-03T06:25:57.690Z,79.50
2022-08-03T06:27:00.837Z,79.33
2022-08-03T06:28:05.364Z,79.14
2022-08-03T06:29:11.495Z,78.75
2022-08-03T06:30:18.090Z,78.58
2022-08-03T06:31:33.174Z,78.21
2022-08-03T06:32:52.161Z,78.07
2022-08-03T06:34:31.610Z,77.72
2022-08-03T06:35:19.435Z,76.62
2022-08-03T06:36:22.657Z,75.92
2022-08-03T06:37:27.323Z,75.26
2022-08-03T06:38:30.610Z,74.35
2022-08-03T06:39:33.886Z,72.89
2022-08-03T06:40:40.294Z,72.09
2022-08-03T06:41:44.791Z,71.18
2022-08-03T06:42:48.328Z,70.61
2022-08-03T06:44:04.025Z,69.58
2022-08-03T06:45:09.325Z,69.25
2022-08-03T06:46:12.394Z,68.96
2022-08-03T06:47:15.603Z,68.01
2022-08-03T06:48:18.614Z,66.77
2022-08-03T06:49:21.814Z,66.37
2022-08-03T06:50:26.316Z,66.40
2022-08-03T06:52:04.907Z,66.53
2022-08-03T06:52:55.310Z,65.93
2022-08-03T06:53:58.324Z,64.90
2022-08-03T06:55:01.545Z,64.15
2022-08-03T06:56:05.892Z,63.55
2022-08-03T06:57:11.991Z,63.20
2022-08-03T06:58:15.100Z,62.99
2022-08-03T07:00:08.543Z,62.65
2022-08-03T07:00:42.094Z,61.43
2022-08-03T07:01:45.589Z,61.22
2022-08-03T07:02:57.669Z,60.97
2022-08-03T07:04:01.481Z,60.50
2022-08-03T07:05:05.128Z,60.79
2022-08-03T07:06:08.255Z,60.48
2022-08-03T07:07:11.321Z,60.09
2022-08-03T07:08:15.507Z,59.37
2022-08-03T07:09:18.645Z,58.98
2022-08-03T07:10:21.783Z,58.98
2022-08-03T07:11:25.151Z,58.52
2022-08-03T07:12:30.038Z,58.49
2022-08-03T07:13:33.149Z,57.79
2022-08-03T07:14:39.311Z,58.17
2022-08-03T07:15:55.756Z,58.02
2022-08-03T07:16:59.554Z,57.63
2022-08-03T07:18:02.851Z,57.15
2022-08-03T07:19:06.125Z,56.29
2022-08-03T07:20:09.435Z,56.60
2022-08-03T07:21:13.080Z,56.39
2022-08-03T07:22:16.648Z,56.62
2022-08-03T07:23:20.164Z,56.36
2022-08-03T07:24:23.199Z,56.18
2022-08-03T07:25:26.449Z,55.99
2022-08-03T07:26:29.719Z,55.58
2022-08-03T07:27:33.936Z,54.95
2022-08-03T07:28:37.768Z,55.18
2022-08-03T07:29:40.872Z,55.01
2022-08-03T07:30:44.055Z,54.67
2022-08-03T07:31:47.859Z,54.72
2022-08-03T07:32:50.936Z,54.11
2022-08-03T07:33:54.084Z,54.18
2022-08-03T07:35:00.789Z,54.27
2022-08-03T07:36:04.920Z,54.51
2022-08-03T07:37:08.337Z,53.64
2022-08-03T07:38:11.412Z,54.12
2022-08-03T07:39:17.442Z,53.61
2022-08-03T07:40:21.078Z,53.31
2022-08-03T07:41:24.415Z,53.00
2022-08-03T07:42:29.433Z,52.76
2022-08-03T07:43:33.154Z,52.90
2022-08-03T07:44:36.197Z,52.78
2022-08-03T07:45:39.486Z,52.89
2022-08-03T07:46:44.259Z,52.65
2022-08-03T07:47:53.447Z,52.05
2022-08-03T07:48:57.303Z,51.94
2022-08-03T07:50:00.582Z,51.83
2022-08-03T07:51:05.850Z,51.80
2022-08-03T07:52:28.394Z,51.75
2022-08-03T07:53:32.051Z,52.03
2022-08-03T07:54:43.919Z,52.12
2022-08-03T07:55:46.995Z,51.89
2022-08-03T07:56:50.132Z,51.64
2022-08-03T07:58:09.489Z,51.69
2022-08-03T07:59:12.582Z,51.21
2022-08-03T08:00:19.966Z,50.65
2022-08-03T08:01:23.796Z,50.73
2022-08-03T08:02:27.476Z,50.84
2022-08-03T08:03:30.705Z,50.76
2022-08-03T08:04:53.747Z,50.96
2022-08-03T08:05:57.097Z,50.61
2022-08-03T08:07:00.345Z,50.43
2022-08-03T08:08:04.483Z,50.34
2022-08-03T08:09:11.754Z,50.56
2022-08-03T08:10:15.029Z,50.49
2022-08-03T08:11:18.400Z,50.75
2022-08-03T08:12:21.573Z,50.84
2022-08-03T08:13:24.984Z,50.36
2022-08-03T08:14:28.090Z,49.73
2022-08-03T08:15:33.135Z,50.10
2022-08-03T08:16:36.630Z,50.73
2022-08-03T08:17:57.430Z,49.93
2022-08-03T08:19:02.245Z,48.49
2022-08-03T08:20:06.559Z,48.40
2022-08-03T08:21:12.280Z,48.59
2022-08-03T08:22:15.724Z,48.33
2022-08-03T08:23:41.642Z,48.71
2022-08-03T08:24:48.687Z,49.11
2022-08-03T08:25:54.294Z,49.12
2022-08-03T08:27:01.430Z,48.11
2022-08-03T08:28:30.758Z,47.37
2022-08-03T08:29:28.089Z,47.04
2022-08-03T08:30:32.980Z,46.19
2022-08-03T08:31:36.050Z,45.95
2022-08-03T08:32:39.230Z,45.96
2022-08-03T08:34:03.176Z,45.90
2022-08-03T08:35:08.077Z,46.57
2022-08-03T08:36:15.405Z,45.93
2022-08-03T08:37:20.133Z,45.72
2022-08-03T08:38:23.636Z,45.69
2022-08-03T08:39:26.660Z,45.33
2022-08-03T08:40:30.214Z,45.21
2022-08-03T08:41:35.095Z,46.34
2022-08-03T08:42:51.890Z,45.50
2022-08-03T08:44:04.450Z,44.68
2022-08-03T08:45:09.579Z,44.54
2022-08-03T08:46:23.590Z,45.55
2022-08-03T08:47:50.856Z,44.78
2022-08-03T08:48:54.831Z,44.31
2022-08-03T08:50:09.621Z,43.92
2022-08-03T08:51:19.726Z,44.13
2022-08-03T08:52:31.904Z,43.99
2022-08-03T08:53:37.614Z,43.72
2022-08-03T08:54:44.848Z,43.44
2022-08-03T08:55:59.548Z,43.06
2022-08-03T08:57:16.472Z,43.10
2022-08-03T08:58:33.063Z,42.83
2022-08-03T08:59:49.051Z,43.28
2022-08-03T09:00:53.317Z,43.17
2022-08-03T09:01:59.474Z,43.53
2022-08-03T09:03:02.618Z,42.32
2022-08-03T09:04:09.738Z,42.14
2022-08-03T09:05:15.949Z,43.05
2022-08-03T09:06:19.060Z,43.27
2022-08-03T09:07:22.319Z,44.22
2022-08-03T09:08:26.695Z,43.24
2022-08-03T09:10:10.582Z,42.05
2022-08-03T09:10:54.144Z,42.13
2022-08-03T09:12:20.054Z,42.12
2022-08-03T09:13:22.276Z,41.03
2022-08-03T09:14:39.473Z,40.67
2022-08-03T09:16:15.509Z,41.13
2022-08-03T09:17:19.174Z,40.65
2022-08-03T09:18:30.550Z,40.18
2022-08-03T09:19:37.108Z,39.98
2022-08-03T09:20:45.449Z,40.57
2022-08-03T09:22:13.341Z,40.86
2022-08-03T09:23:58.989Z,41.75
2022-08-03T09:25:22.856Z,42.05
2022-08-03T09:26:30.162Z,40.90
2022-08-03T09:27:47.000Z,40.61
2022-08-03T09:29:13.777Z,41.20
2022-08-03T09:30:34.519Z,41.59
2022-08-03T09:31:45.205Z,41.72
2022-08-03T09:32:48.844Z,40.94
2022-08-03T09:33:59.963Z,41.44
2022-08-03T09:35:05.848Z,41.50
2022-08-03T09:36:36.654Z,40.98
2022-08-03T09:38:11.978Z,40.61
2022-08-03T09:39:07.216Z,39.94
2022-08-03T09:40:33.745Z,39.51
2022-08-03T09:41:47.138Z,39.75
2022-08-03T09:42:59.078Z,40.32
2022-08-03T09:44:02.439Z,40.18
2022-08-03T09:45:06.754Z,40.40
2022-08-03T09:46:09.912Z,40.46
2022-08-03T09:47:15.705Z,39.22
2022-08-03T09:48:27.319Z,39.50
2022-08-03T09:49:30.490Z,39.75
2022-08-03T09:51:14.207Z,39.36
2022-08-03T09:52:38.198Z,39.91
2022-08-03T09:53:59.178Z,39.96
2022-08-03T09:56:04.991Z,40.77
2022-08-03T09:56:44.186Z,40.62
2022-08-03T09:57:47.265Z,40.01
2022-08-03T09:58:51.585Z,40.05
2022-08-03T10:00:08.342Z,39.59
2022-08-03T10:01:23.890Z,39.61
2022-08-03T10:02:28.517Z,39.01
2022-08-03T10:04:02.746Z,38.49
2022-08-03T10:05:01.785Z,36.82
2022-08-03T10:06:20.151Z,37.67
2022-08-03T10:07:25.160Z,37.23
2022-08-03T10:08:28.278Z,37.57
2022-08-03T10:09:31.453Z,37.22
2022-08-03T10:10:44.020Z,37.86
2022-08-03T10:11:47.774Z,37.24
2022-08-03T10:12:54.084Z,37.72
2022-08-03T10:14:01.553Z,37.73
2022-08-03T10:15:06.524Z,38.23
2022-08-03T10:16:21.712Z,38.05
2022-08-03T10:17:28.394Z,38.50
2022-08-03T10:18:31.681Z,38.50
2022-08-03T10:19:34.752Z,37.85
2022-08-03T10:20:43.551Z,37.72
2022-08-03T10:22:01.959Z,38.76
2022-08-03T10:23:06.432Z,38.14
2022-08-03T10:24:16.547Z,37.97
2022-08-03T10:25:19.893Z,37.99
2022-08-03T10:26:27.214Z,38.58
2022-08-03T10:27:37.936Z,36.89
2022-08-03T10:28:53.228Z,37.94
2022-08-03T10:30:04.105Z,37.40
2022-08-03T10:31:11.927Z,37.07
2022-08-03T10:32:30.754Z,36.88
2022-08-03T10:33:50.310Z,37.36
2022-08-03T10:35:19.719Z,38.38
2022-08-03T10:36:27.643Z,37.95
2022-08-03T10:37:37.108Z,38.76
2022-08-03T10:38:55.393Z,38.55
2022-08-03T10:40:00.628Z,38.73
2022-08-03T10:41:07.075Z,37.53
2022-08-03T10:42:15.698Z,36.74
2022-08-03T10:43:23.232Z,37.84
2022-08-03T10:44:32.806Z,36.16
2022-08-03T10:45:41.849Z,36.17
2022-08-03T10:46:51.571Z,36.30
2022-08-03T10:47:57.582Z,36.01
2022-08-03T10:49:01.616Z,36.49
2022-08-03T10:50:06.168Z,36.46
2022-08-03T10:51:09.791Z,36.11
2022-08-03T10:52:33.825Z,36.67
2022-08-03T10:53:56.443Z,36.64
2022-08-03T10:55:51.650Z,36.78
2022-08-03T10:57:14.686Z,36.89
2022-08-03T10:58:36.764Z,36.70
2022-08-03T10:59:50.956Z,37.01
2022-08-03T11:00:54.354Z,35.77
2022-08-03T11:02:00.785Z,35.62
2022-08-03T11:03:16.878Z,36.69
2022-08-03T11:04:21.857Z,36.67
2022-08-03T11:05:29.698Z,35.86
2022-08-03T11:06:37.298Z,35.98
2022-08-03T11:07:47.876Z,36.34
2022-08-03T11:09:11.247Z,35.43
2022-08-03T11:10:44.781Z,35.10
2022-08-03T11:11:51.676Z,34.16
2022-08-03T11:13:07.778Z,33.88
2022-08-03T11:14:16.934Z,34.22
2022-08-03T11:15:33.618Z,34.86
2022-08-03T11:16:54.704Z,34.18
2022-08-03T11:18:11.011Z,34.41
2022-08-03T11:19:18.303Z,33.67
2022-08-03T11:20:48.538Z,34.67
2022-08-03T11:21:51.798Z,34.44
2022-08-03T11:22:57.352Z,34.60
2022-08-03T11:24:04.335Z,33.71
2022-08-03T11:25:09.487Z,33.27
2022-08-03T11:26:33.299Z,32.37
2022-08-03T11:27:36.497Z,33.11
2022-08-03T11:28:47.680Z,32.51
2022-08-03T11:30:06.057Z,32.16
2022-08-03T11:31:48.713Z,32.41
2022-08-03T11:32:58.830Z,32.71
2022-08-03T11:34:13.659Z,34.15
2022-08-03T11:35:19.193Z,33.35
2022-08-03T11:36:32.786Z,33.94
2022-08-03T11:38:09.120Z,34.01
2022-08-03T11:39:17.012Z,34.62
2022-08-03T11:40:56.190Z,32.72
2022-08-03T11:41:59.302Z,33.15
2022-08-03T11:43:07.499Z,33.28
2022-08-03T11:44:40.207Z,33.68
2022-08-03T11:46:02.575Z,33.10
2022-08-03T11:47:08.364Z,31.80
2022-08-03T11:48:18.754Z,31.67
2022-08-03T11:49:24.055Z,31.54
2022-08-03T11:50:27.244Z,31.27
2022-08-03T11:51:34.093Z,30.71
2022-08-03T11:52:39.216Z,31.97
2022-08-03T11:53:44.261Z,32.75
2022-08-03T11:54:51.394Z,33.03
2022-08-03T11:56:02.100Z,33.32
2022-08-03T11:57:05.684Z,34.46
2022-08-03T11:59:16.561Z,32.59
2022-08-03T11:59:35.740Z,32.57
2022-08-03T12:00:40.655Z,32.08
2022-08-03T12:01:43.956Z,31.31
2022-08-03T12:02:58.518Z,31.17
2022-08-03T12:04:07.816Z,31.43
2022-08-03T12:05:10.957Z,32.49
2022-08-03T12:06:16.234Z,32.22
2022-08-03T12:07:24.982Z,32.38
2022-08-03T12:08:44.792Z,32.09
2022-08-03T12:10:16.279Z,32.14
2022-08-03T12:11:20.198Z,32.17
2022-08-03T12:12:23.324Z,32.14
2022-08-03T12:14:44.122Z,32.04
2022-08-03T12:15:02.929Z,31.97
2022-08-03T12:16:06.343Z,31.80
2022-08-03T12:17:09.451Z,31.47
2022-08-03T12:18:17.836Z,31.63
2022-08-03T12:19:20.859Z,32.00
2022-08-03T12:20:34.415Z,32.48
2022-08-03T12:21:56.849Z,32.99
2022-08-03T12:23:05.926Z,31.83
2022-08-03T12:24:09.548Z,31.54
2022-08-03T12:25:38.554Z,30.80
2022-08-03T12:26:58.449Z,30.62
2022-08-03T12:28:31.822Z,30.12
2022-08-03T12:29:41.281Z,30.59
2022-08-03T12:30:46.461Z,30.05
2022-08-03T12:31:49.743Z,30.03
2022-08-03T12:32:52.975Z,30.30
2022-08-03T12:34:00.417Z,30.23
2022-08-03T12:35:06.286Z,29.85
2022-08-03T12:36:10.645Z,29.07
2022-08-03T12:37:21.949Z,29.46
2022-08-03T12:38:26.037Z,29.83
2022-08-03T12:39:31.504Z,29.51
2022-08-03T12:40:37.658Z,30.14
2022-08-03T12:41:41.176Z,30.00
2022-08-03T12:42:44.288Z,29.95
2022-08-03T12:43:51.339Z,29.98
2022-08-03T12:44:54.672Z,29.78
2022-08-03T12:46:15.170Z,29.49
2022-08-03T12:47:18.956Z,29.68
2022-08-03T12:48:23.517Z,30.82
2022-08-03T12:49:46.484Z,30.64
2022-08-03T12:50:53.586Z,30.23
2022-08-03T12:52:05.289Z,30.48
2022-08-03T12:53:10.863Z,30.14
2022-08-03T12:54:24.675Z,29.99
2022-08-03T12:55:57.552Z,30.74
2022-08-03T12:57:02.636Z,30.43
2022-08-03T12:58:10.299Z,30.23
2022-08-03T12:59:40.542Z,30.79
2022-08-03T13:00:56.161Z,30.11
2022-08-03T13:02:00.167Z,30.73
2022-08-03T13:04:39.036Z,30.26
2022-08-03T13:05:45.772Z,30.17
2022-08-03T13:07:02.685Z,30.04
2022-08-03T13:08:18.685Z,31.68
2022-08-03T13:09:21.717Z,30.81
2022-08-03T13:10:30.112Z,30.10
2022-08-03T13:11:58.224Z,30.02
2022-08-03T13:13:05.925Z,30.08
2022-08-03T13:14:09.614Z,29.91
2022-08-03T13:15:18.395Z,29.54
2022-08-03T13:16:22.654Z,29.28
2022-08-03T13:17:27.031Z,28.75
2022-08-03T13:18:30.308Z,28.94
2022-08-03T13:19:38.170Z,29.20
2022-08-03T13:20:43.694Z,29.13
2022-08-03T13:21:53.362Z,28.33
2022-08-03T13:23:07.138Z,28.24
2022-08-03T13:24:19.380Z,28.17
2022-08-03T13:25:22.985Z,27.65
2022-08-03T13:26:26.071Z,27.65
2022-08-03T13:28:04.353Z,27.67
2022-08-03T13:28:56.610Z,28.37
2022-08-03T13:29:59.887Z,27.53
2022-08-03T13:31:03.869Z,27.54
2022-08-03T13:32:07.854Z,28.31
2022-08-03T13:33:11.454Z,28.24
2022-08-03T13:34:16.324Z,28.74
2022-08-03T13:35:21.740Z,29.38
2022-08-03T13:36:25.345Z,29.03
2022-08-03T13:37:33.184Z,28.35
2022-08-03T13:38:36.304Z,27.80
2022-08-03T13:39:58.299Z,27.56
2022-08-03T13:41:05.168Z,27.74
2022-08-03T13:42:08.906Z,27.11
2022-08-03T13:43:12.786Z,26.20
2022-08-03T13:44:29.191Z,26.77
2022-08-03T13:45:34.318Z,27.61
2022-08-03T13:46:37.815Z,26.79
2022-08-03T13:47:40.940Z,26.62
2022-08-03T13:48:45.882Z,27.44
2022-08-03T13:50:00.156Z,27.68
2022-08-03T13:51:11.948Z,28.21
2022-08-03T13:52:25.861Z,28.76
2022-08-03T13:53:28.886Z,27.96
2022-08-03T13:54:34.066Z,27.57
2022-08-03T13:55:37.165Z,27.43
2022-08-03T13:56:42.178Z,26.51
2022-08-03T13:58:02.614Z,26.41
2022-08-03T13:59:08.377Z,26.70
2022-08-03T14:00:12.385Z,26.99
2022-08-03T14:01:15.759Z,26.95
2022-08-03T14:02:18.879Z,27.18
2022-08-03T14:03:24.785Z,27.25
2022-08-03T14:04:27.959Z,27.07
2022-08-03T14:05:32.047Z,26.88
2022-08-03T14:06:35.444Z,26.63
2022-08-03T14:07:38.606Z,26.61
2022-08-03T14:08:41.709Z,26.87
2022-08-03T14:09:44.737Z,26.78
2022-08-03T14:10:47.762Z,26.82
2022-08-03T14:12:06.996Z,27.22
2022-08-03T14:13:17.595Z,27.64
2022-08-03T14:14:21.293Z,27.66
2022-08-03T14:15:24.527Z,27.53
2022-08-03T14:16:27.724Z,27.29
2022-08-03T14:17:49.620Z,26.48
2022-08-03T14:18:53.215Z,26.70
2022-08-03T14:19:56.319Z,27.40
2022-08-03T14:21:07.232Z,27.48
2022-08-03T14:22:11.204Z,27.14
2022-08-03T14:23:15.325Z,26.52
2022-08-03T14:24:18.505Z,26.11
2022-08-03T14:25:21.910Z,26.23
2022-08-03T14:26:25.040Z,25.85
2022-08-03T14:27:28.121Z,25.31
2022-08-03T14:28:31.448Z,25.51
2022-08-03T14:29:37.175Z,26.51
2022-08-03T14:30:40.337Z,27.29
2022-08-03T14:32:11.343Z,26.84
2022-08-03T14:33:06.827Z,27.46
2022-08-03T14:34:09.924Z,26.80
2022-08-03T14:35:13.122Z,26.70
2022-08-03T14:36:17.069Z,26.22
2022-08-03T14:37:22.585Z,25.57
2022-08-03T14:38:25.911Z,25.77
2022-08-03T14:39:58.342Z,26.03
2022-08-03T14:40:53.297Z,26.22
2022-08-03T14:41:56.492Z,26.20
2022-08-03T14:42:59.571Z,25.58
2022-08-03T14:44:02.688Z,25.55
2022-08-03T14:45:20.034Z,25.97
2022-08-03T14:46:23.907Z,26.27
2022-08-03T14:47:26.926Z,26.87
2022-08-03T14:50:32.076Z,26.10